Accueil
METAR-TAF:

METAR-TAF

Aéroports :

Djeddah, Arabie saoudite

Aéroport international Roi-Abdelaziz

latitude: 21-42N, longitude: 039-11E, altitude: 15 m

Observation

Le bulletin a été fait il y a 1 heure et 4 minutes, à 02:00 UTC
Vent 4 kt de ouest/nord-ouest
Température 31°C
Humidité 75%
Pression 998 hPa
Visibilité 10 km ou plus
pas de nuages en-dessous de 1500 mètres et pas de cumulonimbus.

METAR: OEJN 240200Z 29004KT CAVOK 31/26 Q0998 NOSIG

Heure: 06:04 (03:04 UTC)

Prévision

Le bulletin a été fait il y a 4 heures et 4 minutes, à 23:00 UTC
Prévision valable du 24 à 00 UTC au 25 à 06 UTC
Vent 12 kt de nord/nord-ouest
Visibilité: 8000 m
Nuages épars à une hauteur de 4000 ft
Nuages épars à une hauteur de 10000 ft
Evoluant progressivement
du 24 à 08 UTC au 24 à 10 UTC
Vent 15 kt de ouest

TAF: OEJN 232300Z 2400/2506 34012KT 8000 SCT040 SCT100 BECMG 2408/2410 27015KT

Observations et prévisions météorologiques de plus de 4000 aéroports (messages METAR et TAF).

Les stations disponibles sont représentées par des disques jaunes et rouges sur la carte.

Passer la souris dessus pour voir le nom de la station.

Cliquer dessus pour voir les observations et prévisions météorologiques.

Pour changer de carte: cliquez sur les boutons verts avec une croix noire pour zoomer, sur le bouton vert avec un tiret pour effectuer un zoom arrière, ou sur les flèches vertes pour les cartes adjacentes.


METAR-TAF: